PST,Max TemperatureF,Mean TemperatureF,Min TemperatureF,Max Dew PointF,MeanDew PointF,Min DewpointF,Max Humidity, Mean Humidity, Min Humidity, Max Sea Level PressureIn, Mean Sea Level PressureIn, Min Sea Level PressureIn, Max VisibilityMiles, Mean VisibilityMiles, Min VisibilityMiles, Max Wind SpeedMPH, Mean Wind SpeedMPH, Max Gust SpeedMPH,PrecipitationIn, CloudCover, Events, WindDirDegrees
2013-2-1,69,51,33,45,39,32,100,68,36,30.20,30.17,30.09,10,7,0,13,4,15,0.00,0,Fog,38
2013-2-2,62,51,39,50,43,37,96,78,60,30.31,30.24,30.19,10,8,2,8,2,9,0.00,2,,211
2013-2-3,60,48,36,48,42,36,100,84,67,30.24,30.19,30.12,10,6,0,8,2,17,0.00,4,Fog,203
2013-2-4,53,44,35,46,41,36,100,93,86,30.17,30.12,30.05,10,3,0,7,2,18,0.00,5,Fog,290
2013-2-5,59,48,37,48,43,39,100,83,66,30.14,30.08,30.03,10,10,2,20,8,23,0.00,5,,276
2013-2-6,59,46,32,43,38,31,96,77,57,30.18,30.14,30.09,10,10,8,16,4,22,0.00,0,,238
2013-2-7,57,47,37,45,39,33,100,72,43,30.17,30.08,29.98,10,10,4,18,7,25,0.03,5,Rain,226
2013-2-8,58,46,33,41,33,23,100,65,30,30.00,29.95,29.91,10,10,10,17,5,21,0.00,2,,326
2013-2-9,58,45,31,36,29,24,82,55,28,30.08,30.02,29.98,10,10,10,15,5,16,0.00,0,,191
2013-2-10,59,44,28,41,33,26,92,68,44,30.11,30.06,30.00,10,10,10,10,3,13,0.00,0,,231
2013-2-11,68,50,32,40,32,26,92,58,24,30.22,30.14,30.06,10,10,10,16,5,20,0.00,0,,339
2013-2-12,61,47,33,41,36,31,100,73,46,30.35,30.29,30.22,10,8,1,13,4,17,0.00,2,,47
2013-2-13,61,45,29,46,37,28,100,76,51,30.36,30.30,30.19,10,5,0,9,2,20,0.00,1,Fog,173
2013-2-14,68,51,34,48,40,33,100,71,42,30.26,30.21,30.14,10,5,0,9,3,23,0.00,1,Fog,228
2013-2-15,71,54,36,44,40,33,86,60,33,30.25,30.22,30.19,10,10,10,18,4,18,0.00,0,,77
2013-2-16,69,53,36,50,43,36,96,71,45,30.22,30.12,30.02,10,10,10,10,4,13,0.00,0,,232
2013-2-17,63,48,33,45,38,32,100,74,48,30.04,30.01,29.95,10,6,0,9,3,10,0.00,1,Fog,168
2013-2-18,56,45,34,43,39,34,92,74,55,30.03,29.97,29.92,10,10,9,21,9,36,0.00,6,,245
2013-2-19,50,41,32,45,37,30,89,74,58,29.94,29.82,29.72,10,9,2,23,8,31,0.25,5,Rain,264
2013-2-20,61,43,25,41,34,24,92,66,39,30.03,29.95,29.85,10,10,10,16,6,,0.00,0,,230
2013-2-21,64,47,30,37,33,27,96,61,25,30.16,30.09,30.04,10,10,4,18,5,21,0.00,0,,284
2013-2-22,62,45,28,44,38,29,92,70,48,30.24,30.19,30.15,10,10,10,16,5,23,0.00,0,,234
2013-2-23,63,51,39,45,36,19,93,56,19,30.25,30.18,30.13,10,10,10,22,10,26,0.00,2,,309
2013-2-24,66,51,35,41,28,20,89,53,16,30.23,30.19,30.14,10,10,10,20,9,25,0.00,0,,331
2013-2-25,65,49,32,45,38,31,100,72,44,30.25,30.21,30.14,10,10,7,12,3,18,0.00,0,,180
2013-2-26,71,51,30,40,32,22,92,55,18,30.20,30.16,30.11,10,10,10,13,4,17,0.00,0,,201
2013-2-27,66,49,31,45,36,27,92,57,22,30.34,30.27,30.19,10,10,10,14,4,16,0.00,1,,221
2013-2-28,68,56,43,54,49,45,93,76,58,30.43,30.38,30.35,10,10,9,13,4,16,0.00,2,,198